Time;durP1;ratioP1;P1;durP2;ratioP2;P2;SDS_P1;SDS_P2;PMS_P1;PMS_P2;Temp;Humidity;BMP_temperature;BMP_pressure;BME280_temperature;BME280_humidity;BME280_pressure;Samples;Min_cycle;Max_cycle;Signal;HPM_P1;HPM_P2
2023/07/07 00:01:43;;;;;;;7.30;6.30;;;13.00;99.90;;;;;;5135017;27;20043;-40
2023/07/07 00:04:09;;;;;;;11.10;6.40;;;13.00;99.90;;;;;;5135595;27;20047;-41
2023/07/07 00:06:35;;;;;;;10.55;6.53;;;13.00;99.90;;;;;;5135288;27;20039;-41
2023/07/07 00:09:02;;;;;;;7.78;6.97;;;12.90;99.90;;;;;;5116761;27;20540;-40
2023/07/07 00:11:28;;;;;;;9.43;7.28;;;12.90;99.90;;;;;;5135874;27;20051;-41
2023/07/07 00:13:54;;;;;;;10.05;6.43;;;12.90;99.90;;;;;;5136189;27;20119;-40
2023/07/07 00:16:27;;;;;;;8.27;5.70;;;12.90;99.90;;;;;;5117182;27;20036;-41
2023/07/07 00:18:58;;;;;;;8.98;6.90;;;12.90;99.90;;;;;;5136063;27;20091;-41
2023/07/07 00:21:25;;;;;;;9.55;6.75;;;12.90;99.90;;;;;;5134913;27;20051;-40
2023/07/07 00:23:59;;;;;;;8.98;6.18;;;12.90;99.90;;;;;;5135722;27;20078;-40
2023/07/07 00:26:25;;;;;;;7.75;6.20;;;12.90;99.90;;;;;;5134242;27;20053;-42
2023/07/07 00:28:51;;;;;;;5.95;5.45;;;12.90;99.90;;;;;;5135618;27;20431;-41
2023/07/07 00:31:20;;;;;;;8.80;5.90;;;12.80;99.90;;;;;;5113450;27;20043;-40
2023/07/07 00:33:46;;;;;;;7.28;6.22;;;12.80;99.90;;;;;;5124891;27;20078;-40
2023/07/07 00:36:12;;;;;;;7.28;6.40;;;12.70;99.90;;;;;;5104735;27;20553;-41
2023/07/07 00:38:39;;;;;;;6.60;6.00;;;12.80;99.90;;;;;;5118529;27;20119;-40
2023/07/07 00:41:06;;;;;;;8.25;5.95;;;12.70;99.90;;;;;;5134118;27;20062;-41
2023/07/07 00:43:32;;;;;;;7.93;5.85;;;12.70;99.90;;;;;;5117728;27;20039;-41
2023/07/07 00:45:59;;;;;;;7.43;5.82;;;12.70;99.90;;;;;;5128278;27;20046;-40
2023/07/07 00:48:29;;;;;;;7.45;6.03;;;12.70;99.90;;;;;;5135118;27;20045;-42
2023/07/07 00:51:19;;;;;;;10.25;6.00;;;12.60;99.90;;;;;;5134135;27;20496;-41
2023/07/07 00:53:47;;;;;;;8.30;6.53;;;12.60;99.90;;;;;;5134215;27;20318;-42
2023/07/07 00:56:19;;;;;;;8.43;5.55;;;12.50;99.90;;;;;;5116089;27;20051;-40
2023/07/07 00:58:45;;;;;;;6.15;5.55;;;12.40;99.90;;;;;;5117027;27;20516;-41
2023/07/07 01:01:17;;;;;;;6.50;5.90;;;12.40;99.90;;;;;;5134748;27;20038;-41
2023/07/07 01:03:51;;;;;;;7.85;6.45;;;12.40;99.90;;;;;;5134397;27;20042;-40
2023/07/07 01:06:24;;;;;;;8.25;5.90;;;12.40;99.90;;;;;;5116362;27;20047;-40
2023/07/07 01:08:59;;;;;;;6.55;5.90;;;12.40;99.90;;;;;;5116603;27;20580;-41
2023/07/07 01:11:24;;;;;;;10.00;6.03;;;12.40;99.90;;;;;;5133776;27;20118;-40
2023/07/07 01:13:50;;;;;;;8.23;5.75;;;12.40;99.90;;;;;;5134755;27;20035;-42
2023/07/07 01:16:22;;;;;;;6.90;5.63;;;12.40;99.90;;;;;;5134035;27;20074;-40
2023/07/07 01:18:53;;;;;;;7.85;6.50;;;12.40;99.90;;;;;;5130231;27;20035;-41
2023/07/07 01:21:36;;;;;;;6.07;5.25;;;12.40;99.90;;;;;;5130437;27;20453;-41
2023/07/07 01:24:24;;;;;;;7.05;6.28;;;12.40;99.90;;;;;;5127218;27;20047;-40
2023/07/07 01:27:32;;;;;;;7.25;6.20;;;12.40;99.90;;;;;;5138009;27;20038;-42
2023/07/07 01:30:29;;;;;;;8.38;5.43;;;12.40;99.90;;;;;;5052312;28;20053;-40
2023/07/07 01:32:54;;;;;;;9.20;6.00;;;12.40;99.90;;;;;;5052002;28;20060;-41
2023/07/07 01:35:22;;;;;;;8.30;6.25;;;12.40;99.90;;;;;;5036741;28;20061;-40
2023/07/07 01:37:57;;;;;;;6.70;5.50;;;12.40;99.90;;;;;;5035177;28;20048;-42
2023/07/07 01:40:31;;;;;;;8.05;6.72;;;12.30;99.90;;;;;;5053647;28;20453;-41
2023/07/07 01:43:01;;;;;;;6.53;5.93;;;12.40;99.90;;;;;;5045903;28;20045;-40
2023/07/07 01:45:41;;;;;;;8.15;6.13;;;12.40;99.90;;;;;;5023887;28;20859;-40
2023/07/07 01:48:38;;;;;;;8.57;5.72;;;12.40;99.90;;;;;;5033143;28;20264;-41
2023/07/07 01:51:09;;;;;;;8.50;6.22;;;12.40;99.90;;;;;;5032843;28;20251;-41
2023/07/07 01:53:36;;;;;;;6.43;5.72;;;12.30;99.90;;;;;;5033109;28;20492;-42
2023/07/07 01:56:02;;;;;;;6.65;5.57;;;12.30;99.90;;;;;;5032546;28;20057;-40
2023/07/07 01:58:30;;;;;;;10.45;6.70;;;12.30;99.90;;;;;;5017214;28;20649;-40
2023/07/07 02:00:58;;;;;;;8.95;6.10;;;12.30;99.90;;;;;;5012496;28;20057;-40
2023/07/07 02:03:24;;;;;;;10.23;6.57;;;12.30;99.90;;;;;;5044374;28;20052;-40
2023/07/07 02:05:50;;;;;;;8.80;6.60;;;12.30;99.90;;;;;;5058327;27;20054;-40
2023/07/07 02:08:15;;;;;;;8.98;6.97;;;12.30;99.90;;;;;;5137106;27;20031;-40
2023/07/07 02:10:41;;;;;;;7.82;6.85;;;12.30;99.90;;;;;;5101541;27;20046;-42
2023/07/07 02:13:07;;;;;;;9.85;6.72;;;12.30;99.90;;;;;;5137843;27;20038;-40
2023/07/07 02:15:33;;;;;;;8.40;6.47;;;12.20;99.90;;;;;;5136916;27;20050;-40
2023/07/07 02:17:59;;;;;;;7.20;6.53;;;12.20;99.90;;;;;;5138131;27;20074;-40
2023/07/07 02:20:24;;;;;;;7.47;6.57;;;12.20;99.90;;;;;;5137527;27;20038;-40
2023/07/07 02:22:50;;;;;;;9.30;7.15;;;12.20;99.90;;;;;;5137768;27;20088;-40
2023/07/07 02:25:16;;;;;;;10.50;7.60;;;12.20;99.90;;;;;;5131025;27;20481;-41
2023/07/07 02:27:41;;;;;;;9.52;7.80;;;12.20;99.90;;;;;;5116275;27;20035;-40
2023/07/07 02:30:08;;;;;;;10.93;7.68;;;12.20;99.90;;;;;;5117381;27;20043;-40
2023/07/07 02:32:33;;;;;;;9.88;8.13;;;12.20;99.90;;;;;;5116315;27;20043;-40
2023/07/07 02:35:02;;;;;;;9.55;7.80;;;12.20;99.90;;;;;;5106990;27;20033;-40
2023/07/07 02:37:28;;;;;;;8.95;7.40;;;12.20;99.90;;;;;;5114329;27;20043;-40
2023/07/07 02:39:56;;;;;;;8.82;7.95;;;12.20;99.90;;;;;;5115514;27;20042;-41
2023/07/07 02:42:22;;;;;;;9.45;8.00;;;12.20;99.90;;;;;;5116671;27;20545;-40
2023/07/07 02:44:47;;;;;;;9.02;8.10;;;12.20;99.90;;;;;;5084453;27;20099;-40
2023/07/07 02:47:13;;;;;;;8.95;7.88;;;12.20;99.90;;;;;;5098047;27;20495;-40
2023/07/07 02:49:39;;;;;;;12.13;8.98;;;12.20;99.90;;;;;;5116176;27;20035;-41
2023/07/07 02:52:06;;;;;;;10.38;8.52;;;12.20;99.90;;;;;;5115901;27;20146;-40
2023/07/07 02:54:31;;;;;;;12.88;9.20;;;12.10;99.90;;;;;;5116340;27;20054;-41
2023/07/07 02:56:57;;;;;;;10.15;8.55;;;12.10;99.90;;;;;;5115544;27;20043;-40
2023/07/07 02:59:23;;;;;;;13.00;9.55;;;12.10;99.90;;;;;;5116095;27;20092;-41
2023/07/07 03:01:49;;;;;;;13.43;9.32;;;12.10;99.90;;;;;;5115123;27;20380;-40
2023/07/07 03:04:14;;;;;;;11.32;9.57;;;12.10;99.90;;;;;;5096674;27;20078;-40
2023/07/07 03:06:40;;;;;;;11.13;9.45;;;12.10;99.90;;;;;;5096540;27;20035;-41
2023/07/07 03:09:10;;;;;;;12.15;10.88;;;12.10;99.90;;;;;;5115971;27;20054;-40
2023/07/07 03:11:36;;;;;;;11.85;10.63;;;12.10;99.90;;;;;;5096916;27;20047;-40
2023/07/07 03:14:02;;;;;;;15.27;11.00;;;12.00;99.90;;;;;;5115274;27;20100;-40
2023/07/07 03:16:33;;;;;;;12.73;10.70;;;12.00;99.90;;;;;;5115199;27;20043;-40
2023/07/07 03:19:00;;;;;;;11.75;10.50;;;12.00;99.90;;;;;;5102138;27;20493;-39
2023/07/07 03:21:26;;;;;;;15.43;12.00;;;12.00;99.90;;;;;;5114301;27;20071;-40
2023/07/07 03:23:53;;;;;;;12.38;11.10;;;12.00;99.90;;;;;;5116189;27;20088;-40
2023/07/07 03:26:21;;;;;;;14.02;11.32;;;12.00;99.90;;;;;;5114923;27;20125;-40
2023/07/07 03:28:47;;;;;;;14.07;11.05;;;12.00;99.90;;;;;;5115188;27;20031;-40
2023/07/07 03:31:14;;;;;;;13.25;11.38;;;12.00;99.90;;;;;;5114723;27;20617;-40
2023/07/07 03:33:42;;;;;;;14.93;11.27;;;12.00;99.90;;;;;;5115679;27;20070;-40
2023/07/07 03:36:12;;;;;;;19.52;12.70;;;12.00;99.90;;;;;;5110256;27;20115;-40
2023/07/07 03:38:39;;;;;;;12.32;11.02;;;12.00;99.90;;;;;;5112369;27;20043;-39
2023/07/07 03:41:08;;;;;;;12.50;11.30;;;12.00;99.90;;;;;;5096842;27;20073;-40
2023/07/07 03:43:35;;;;;;;12.63;10.57;;;12.10;99.90;;;;;;5106166;27;20094;-40
2023/07/07 03:46:01;;;;;;;12.07;10.80;;;12.10;99.90;;;;;;5108328;27;20034;-40
2023/07/07 03:48:27;;;;;;;12.77;11.45;;;12.20;99.90;;;;;;5117832;27;20049;-40
2023/07/07 03:50:58;;;;;;;13.23;11.27;;;12.20;99.90;;;;;;5121733;27;20051;-40
2023/07/07 03:53:24;;;;;;;14.13;11.50;;;12.20;99.90;;;;;;5096082;27;20051;-40
2023/07/07 03:55:51;;;;;;;13.25;11.90;;;12.40;99.90;;;;;;5092475;27;20051;-40
2023/07/07 03:58:16;;;;;;;13.23;11.48;;;13.10;99.90;;;;;;5115025;27;20093;-42
2023/07/07 04:00:42;;;;;;;13.90;12.48;;;13.90;99.90;;;;;;5092675;27;20606;-41
2023/07/07 04:03:07;;;;;;;12.07;10.93;;;14.60;99.90;;;;;;5114705;27;20354;-40
2023/07/07 04:05:41;;;;;;;14.20;12.18;;;15.40;99.90;;;;;;5112135;27;20528;-41
2023/07/07 04:08:06;;;;;;;;;;;16.10;99.90;;;;;;5114894;27;20269;-41
2023/07/07 04:10:32;;;;;;;13.15;10.95;;;16.70;99.90;;;;;;5094954;27;19941;-43
2023/07/07 04:12:57;;;;;;;12.82;10.75;;;17.30;99.90;;;;;;5096308;27;20063;-41
2023/07/07 04:15:23;;;;;;;14.77;11.75;;;17.90;99.90;;;;;;5113075;27;20051;-42
2023/07/07 04:17:49;;;;;;;11.43;10.25;;;18.50;99.90;;;;;;5114370;27;20092;-42
2023/07/07 04:20:16;;;;;;;11.57;9.75;;;19.10;99.90;;;;;;5114833;27;20531;-43
2023/07/07 04:22:41;;;;;;;10.95;9.57;;;19.60;99.90;;;;;;5114681;27;20042;-44
2023/07/07 04:25:12;;;;;;;11.15;9.70;;;20.10;99.90;;;;;;5114228;27;20400;-41
2023/07/07 04:27:38;;;;;;;9.95;8.95;;;20.70;99.90;;;;;;5115148;27;20468;-41
2023/07/07 04:30:06;;;;;;;11.50;10.15;;;21.10;99.90;;;;;;5095306;28;20043;-41
2023/07/07 04:32:32;;;;;;;10.57;8.57;;;21.60;99.90;;;;;;5114121;27;20554;-44
2023/07/07 04:34:59;;;;;;;10.52;9.48;;;22.00;99.90;;;;;;5104740;27;20079;-42
2023/07/07 04:37:25;;;;;;;10.40;9.40;;;22.50;99.90;;;;;;5111400;27;20067;-42
2023/07/07 04:39:51;;;;;;;13.90;10.77;;;22.90;99.90;;;;;;5112548;27;20390;-42
2023/07/07 04:42:16;;;;;;;11.70;9.07;;;23.50;99.90;;;;;;5113359;28;20046;-43
2023/07/07 04:44:42;;;;;;;12.05;10.85;;;24.00;99.90;;;;;;5086710;27;20049;-42
2023/07/07 04:47:08;;;;;;;11.77;10.68;;;24.40;99.90;;;;;;5091767;28;20047;-42
2023/07/07 04:49:33;;;;;;;11.60;10.55;;;24.70;99.90;;;;;;5093686;28;20099;-42
2023/07/07 04:51:59;;;;;;;12.25;10.88;;;24.50;99.90;;;;;;5095042;28;20092;-42
2023/07/07 04:54:25;;;;;;;13.10;11.80;;;24.40;99.80;;;;;;5114302;27;20074;-43
2023/07/07 04:56:50;;;;;;;13.57;11.77;;;24.60;99.70;;;;;;5117698;27;20820;-42
2023/07/07 04:59:16;;;;;;;12.68;11.50;;;24.40;99.40;;;;;;5118239;27;20039;-43
2023/07/07 05:01:43;;;;;;;12.77;11.50;;;24.80;99.60;;;;;;5099119;27;20530;-43
2023/07/07 05:04:10;;;;;;;12.10;11.00;;;24.60;98.90;;;;;;5118942;27;20039;-43
2023/07/07 05:06:38;;;;;;;13.10;11.90;;;24.70;99.50;;;;;;5117746;27;20370;-45
2023/07/07 05:09:04;;;;;;;14.18;12.90;;;25.00;99.20;;;;;;5117966;27;20039;-44
2023/07/07 05:11:31;;;;;;;15.38;12.75;;;25.00;98.80;;;;;;5117211;27;20046;-43
2023/07/07 05:13:58;;;;;;;13.57;12.45;;;24.80;98.80;;;;;;5117267;27;20043;-43
2023/07/07 05:16:30;;;;;;;13.13;11.95;;;24.90;98.90;;;;;;5117286;27;20055;-42
2023/07/07 05:18:55;;;;;;;14.18;12.65;;;24.80;99.30;;;;;;5117974;27;20126;-43
2023/07/07 05:21:24;;;;;;;14.25;12.93;;;25.00;99.40;;;;;;5124885;27;20654;-42
2023/07/07 05:23:53;;;;;;;15.10;13.60;;;25.20;99.30;;;;;;5138657;27;20049;-42
2023/07/07 05:26:20;;;;;;;15.40;14.05;;;25.30;99.40;;;;;;5137483;27;20110;-42
2023/07/07 05:28:45;;;;;;;15.73;14.07;;;25.40;99.10;;;;;;5138729;27;20085;-43
2023/07/07 05:31:11;;;;;;;16.17;14.43;;;25.40;99.20;;;;;;5137747;27;20159;-44
2023/07/07 05:33:38;;;;;;;14.40;12.93;;;25.60;99.30;;;;;;5138130;27;20121;-42
2023/07/07 05:36:05;;;;;;;14.25;12.70;;;26.00;98.40;;;;;;5089297;27;20050;-43
2023/07/07 05:38:31;;;;;;;13.98;12.68;;;26.00;98.60;;;;;;5113836;27;20035;-44
2023/07/07 05:40:57;;;;;;;13.88;12.57;;;26.30;98.30;;;;;;5116612;27;20440;-43
2023/07/07 05:43:24;;;;;;;14.40;12.98;;;26.40;98.00;;;;;;5091656;28;20476;-42
2023/07/07 05:46:01;;;;;;;17.98;12.00;;;27.10;98.00;;;;;;5092059;27;20043;-42
2023/07/07 05:48:28;;;;;;;12.98;11.75;;;27.30;97.50;;;;;;5117097;27;20038;-45
2023/07/07 05:50:56;;;;;;;13.13;11.93;;;27.60;96.80;;;;;;5116777;27;20564;-43
2023/07/07 05:53:22;;;;;;;13.73;12.48;;;27.70;96.30;;;;;;5098852;27;20074;-45
2023/07/07 05:55:49;;;;;;;13.73;12.25;;;27.80;96.80;;;;;;5118057;27;20223;-42
2023/07/07 05:58:15;;;;;;;12.32;11.20;;;27.90;96.10;;;;;;5118283;27;20042;-43
2023/07/07 06:00:41;;;;;;;14.75;11.93;;;28.10;96.30;;;;;;5117803;27;20730;-44
2023/07/07 06:03:07;;;;;;;13.38;12.25;;;28.30;96.20;;;;;;5118000;27;20062;-43
2023/07/07 06:05:33;;;;;;;12.70;11.02;;;28.50;96.10;;;;;;5116870;27;20035;-43
2023/07/07 06:08:00;;;;;;;12.25;11.13;;;28.60;96.20;;;;;;5117232;27;20053;-47
2023/07/07 06:10:26;;;;;;;13.63;11.90;;;28.70;95.40;;;;;;5117180;27;20463;-44
2023/07/07 06:12:52;;;;;;;13.02;11.38;;;28.60;95.30;;;;;;5117757;27;20043;-43
2023/07/07 06:15:19;;;;;;;12.25;11.05;;;28.70;95.20;;;;;;5117403;27;20043;-43
2023/07/07 06:17:45;;;;;;;12.93;11.40;;;28.70;95.00;;;;;;5117680;27;20759;-43
2023/07/07 06:20:12;;;;;;;11.18;10.15;;;29.00;95.10;;;;;;5116639;27;20381;-42
2023/07/07 06:22:37;;;;;;;11.45;10.18;;;29.10;94.20;;;;;;5117215;27;20051;-42
2023/07/07 06:25:04;;;;;;;11.40;10.30;;;29.20;94.20;;;;;;5116902;27;20548;-43
2023/07/07 06:27:30;;;;;;;11.50;10.43;;;29.20;93.90;;;;;;5117137;27;20066;-42
2023/07/07 06:29:56;;;;;;;13.70;9.90;;;29.50;93.50;;;;;;5117382;27;20035;-42
2023/07/07 06:32:25;;;;;;;12.18;10.00;;;29.60;94.10;;;;;;5098291;27;20462;-43
2023/07/07 06:34:50;;;;;;;11.02;9.98;;;29.90;94.00;;;;;;5089641;28;20166;-43
2023/07/07 06:37:17;;;;;;;10.68;9.52;;;30.10;93.30;;;;;;5114840;27;20044;-39
2023/07/07 06:39:42;;;;;;;10.75;8.98;;;30.20;92.80;;;;;;5114020;27;20055;-44
2023/07/07 06:42:09;;;;;;;9.50;8.27;;;30.70;92.40;;;;;;5116779;27;20377;-42
2023/07/07 06:44:37;;;;;;;9.88;8.70;;;31.00;92.00;;;;;;5107475;27;20046;-41
2023/07/07 06:47:15;;;;;;;10.20;8.63;;;30.90;91.90;;;;;;5137250;27;20113;-40
2023/07/07 06:49:41;;;;;;;11.18;8.52;;;30.80;91.40;;;;;;5106255;27;20520;-43
2023/07/07 06:52:07;;;;;;;13.18;9.25;;;30.90;91.50;;;;;;5122094;27;20377;-40
2023/07/07 06:54:33;;;;;;;12.90;7.85;;;30.50;91.50;;;;;;5099213;27;20047;-43
2023/07/07 06:56:58;;;;;;;11.38;8.55;;;30.60;91.80;;;;;;5116857;27;20170;-42
2023/07/07 06:59:25;;;;;;;10.60;7.57;;;30.40;91.50;;;;;;5117490;27;20564;-41
2023/07/07 07:01:51;;;;;;;11.85;8.52;;;30.20;91.70;;;;;;5116967;27;20484;-41
2023/07/07 07:04:16;;;;;;;10.55;8.55;;;30.30;92.10;;;;;;5136218;27;20051;-41
2023/07/07 07:06:42;;;;;;;8.27;7.47;;;30.40;91.80;;;;;;5117662;27;20333;-42
2023/07/07 07:09:09;;;;;;;10.65;6.80;;;30.60;91.20;;;;;;5136300;27;20095;-42
2023/07/07 07:11:34;;;;;;;8.60;7.32;;;30.70;91.10;;;;;;5136852;27;20046;-43
2023/07/07 07:14:00;;;;;;;8.18;6.60;;;30.80;92.20;;;;;;5137459;27;20045;-41
2023/07/07 07:16:26;;;;;;;7.93;6.15;;;30.90;90.80;;;;;;5136961;27;20384;-43
2023/07/07 07:18:52;;;;;;;9.50;6.35;;;31.10;90.70;;;;;;5136568;27;20488;-42
2023/07/07 07:21:17;;;;;;;8.38;6.13;;;31.10;90.40;;;;;;5111951;27;20491;-43
2023/07/07 07:23:43;;;;;;;6.63;5.93;;;30.60;90.20;;;;;;5116498;27;20486;-42
2023/07/07 07:26:09;;;;;;;7.82;6.55;;;30.40;90.00;;;;;;5116079;27;20427;-44
2023/07/07 07:28:34;;;;;;;7.78;6.60;;;29.90;90.90;;;;;;5116708;27;20153;-44
2023/07/07 07:31:00;;;;;;;8.65;6.32;;;29.50;92.00;;;;;;5116123;27;20103;-42
2023/07/07 07:33:26;;;;;;;7.88;5.90;;;29.00;92.30;;;;;;5116300;27;20125;-42
2023/07/07 07:35:52;;;;;;;12.30;6.10;;;28.70;92.90;;;;;;5107154;27;20039;-44
2023/07/07 07:38:20;;;;;;;7.15;5.90;;;28.00;92.90;;;;;;5118381;27;20393;-45
2023/07/07 07:40:46;;;;;;;9.18;5.90;;;27.70;94.20;;;;;;5136961;27;20149;-44
2023/07/07 07:43:12;;;;;;;6.45;5.03;;;27.80;94.10;;;;;;5125161;27;20361;-43
2023/07/07 07:45:38;;;;;;;5.93;5.32;;;27.80;94.80;;;;;;5108527;27;20545;-43
2023/07/07 07:48:04;;;;;;;7.15;5.35;;;27.80;94.40;;;;;;5115952;27;20286;-42
2023/07/07 07:50:31;;;;;;;6.43;4.82;;;27.60;94.50;;;;;;5115482;27;20449;-43
2023/07/07 07:52:57;;;;;;;8.00;5.30;;;27.30;93.80;;;;;;5116246;27;20050;-41
2023/07/07 07:55:23;;;;;;;5.90;5.38;;;27.00;94.40;;;;;;5115358;27;20510;-43
2023/07/07 07:57:48;;;;;;;7.65;5.20;;;26.90;94.80;;;;;;5136439;27;20578;-43
2023/07/07 08:00:15;;;;;;;8.82;4.97;;;27.00;95.00;;;;;;5117720;27;20499;-43
2023/07/07 08:02:41;;;;;;;5.55;4.40;;;26.70;94.30;;;;;;5136630;27;20042;-41
2023/07/07 08:05:07;;;;;;;8.82;4.63;;;26.60;94.90;;;;;;5135819;27;20066;-42
2023/07/07 08:07:33;;;;;;;9.65;5.22;;;26.60;95.20;;;;;;5117466;27;20039;-41
2023/07/07 08:09:58;;;;;;;9.07;4.38;;;26.50;95.30;;;;;;5136374;27;20417;-44
2023/07/07 08:12:24;;;;;;;7.25;5.10;;;26.50;95.50;;;;;;5136547;27;20405;-44
2023/07/07 08:14:50;;;;;;;10.23;4.65;;;26.50;94.90;;;;;;5136214;27;20477;-42
2023/07/07 08:17:16;;;;;;;5.60;4.60;;;26.40;94.30;;;;;;5136034;27;20137;-47
2023/07/07 08:19:44;;;;;;;7.72;4.65;;;26.10;94.80;;;;;;5136523;27;20042;-42
2023/07/07 08:22:19;;;;;;;6.60;4.60;;;26.10;94.80;;;;;;5136257;27;20413;-44
2023/07/07 08:24:53;;;;;;;10.25;5.32;;;26.00;94.50;;;;;;5135857;27;20089;-44
2023/07/07 08:27:20;;;;;;;7.45;4.90;;;26.10;95.90;;;;;;5136838;27;20046;-42
2023/07/07 08:29:46;;;;;;;8.40;4.50;;;26.20;96.20;;;;;;5122124;27;20550;-42
2023/07/07 08:32:14;;;;;;;7.60;4.32;;;26.30;95.80;;;;;;5136427;27;20427;-42
2023/07/07 08:34:41;;;;;;;5.30;3.88;;;26.50;95.40;;;;;;5120614;27;20075;-41
2023/07/07 08:37:06;;;;;;;6.10;4.00;;;26.60;95.30;;;;;;5113775;27;20575;-42
2023/07/07 08:39:33;;;;;;;6.60;3.65;;;26.70;95.30;;;;;;5091928;27;20051;-42
2023/07/07 08:42:05;;;;;;;5.50;3.65;;;26.60;95.00;;;;;;5116753;27;20133;-42
2023/07/07 08:44:34;;;;;;;5.72;3.90;;;26.50;93.90;;;;;;5109130;27;20111;-44
2023/07/07 08:47:08;;;;;;;6.53;4.75;;;26.60;95.00;;;;;;5136019;27;20038;-42
2023/07/07 08:49:52;;;;;;;8.55;4.20;;;26.50;94.20;;;;;;5136000;27;20043;-42
2023/07/07 08:52:32;;;;;;;5.45;3.33;;;26.30;93.30;;;;;;5107862;27;20040;-42
2023/07/07 08:55:27;;;;;;;5.78;3.30;;;26.30;93.70;;;;;;5114280;27;20040;-43
2023/07/07 08:58:15;;;;;;;4.78;3.53;;;26.20;93.50;;;;;;5093779;27;20047;-44
2023/07/07 09:00:47;;;;;;;7.30;3.67;;;26.30;94.20;;;;;;5114581;27;20362;-42
2023/07/07 09:03:36;;;;;;;5.38;3.50;;;26.40;92.80;;;;;;5097232;28;20154;-43
2023/07/07 09:06:35;;;;;;;4.68;3.50;;;26.40;93.60;;;;;;5114444;27;20500;-41
2023/07/07 09:09:25;;;;;;;5.10;3.42;;;26.30;93.80;;;;;;5118896;27;20238;-44
2023/07/07 09:11:57;;;;;;;4.85;3.60;;;26.40;92.80;;;;;;5135970;27;20042;-42
2023/07/07 09:14:25;;;;;;;6.73;3.70;;;26.50;92.90;;;;;;5136181;27;20507;-43
2023/07/07 09:16:55;;;;;;;4.97;3.63;;;26.50;92.40;;;;;;5135496;27;20276;-43
2023/07/07 09:19:36;;;;;;;8.60;4.03;;;26.50;92.00;;;;;;5136193;27;20039;-42
2023/07/07 09:22:35;;;;;;;7.43;3.72;;;26.50;92.50;;;;;;5134643;27;20125;-42
2023/07/07 09:25:15;;;;;;;5.28;3.53;;;26.70;93.20;;;;;;5023864;28;20561;-41
2023/07/07 09:27:55;;;;;;;4.70;3.40;;;26.70;93.90;;;;;;5050131;28;20450;-42
2023/07/07 09:30:25;;;;;;;6.88;3.30;;;26.70;93.00;;;;;;5049889;28;20644;-41
2023/07/07 09:32:50;;;;;;;4.22;2.95;;;26.90;93.20;;;;;;5051483;28;20689;-41
2023/07/07 09:35:19;;;;;;;8.35;3.60;;;26.90;92.30;;;;;;5032931;28;20082;-43
2023/07/07 09:38:09;;;;;;;4.22;3.33;;;27.00;92.80;;;;;;5029774;28;20037;-42
2023/07/07 09:41:13;;;;;;;5.15;3.40;;;27.10;91.60;;;;;;5029812;28;20509;-47
2023/07/07 09:43:47;;;;;;;4.65;2.97;;;26.90;90.20;;;;;;5033980;28;20041;-41
2023/07/07 09:46:26;;;;;;;4.82;3.65;;;27.00;89.40;;;;;;5016262;28;20514;-42
2023/07/07 09:49:23;;;;;;;6.63;3.20;;;27.10;91.70;;;;;;5034021;28;20139;-41
2023/07/07 09:52:15;;;;;;;4.45;3.17;;;27.10;91.90;;;;;;4938278;28;20675;-43
2023/07/07 09:54:42;;;;;;;4.80;3.53;;;27.10;90.40;;;;;;4954610;28;20051;-42
2023/07/07 09:57:33;;;;;;;4.53;3.38;;;27.10;91.10;;;;;;4938595;28;20452;-42
2023/07/07 10:00:01;;;;;;;5.78;3.35;;;27.10;91.30;;;;;;4954913;28;20057;-41
2023/07/07 10:02:27;;;;;;;5.38;3.83;;;27.20;91.40;;;;;;5011938;28;20057;-44
2023/07/07 10:05:03;;;;;;;6.00;3.08;;;27.20;91.70;;;;;;5033731;28;20045;-43
2023/07/07 10:07:35;;;;;;;5.93;3.47;;;27.30;91.70;;;;;;5028793;28;20057;-43
2023/07/07 10:10:05;;;;;;;5.20;4.10;;;27.20;91.60;;;;;;5013925;28;20057;-41
2023/07/07 10:12:32;;;;;;;6.10;3.72;;;27.20;92.50;;;;;;5014393;28;20575;-45
2023/07/07 10:14:58;;;;;;;6.60;3.70;;;27.40;92.40;;;;;;5026990;28;20237;-44
2023/07/07 10:17:50;;;;;;;5.72;3.30;;;27.50;92.60;;;;;;5014682;28;20062;-42
2023/07/07 10:20:16;;;;;;;4.43;3.22;;;27.30;90.50;;;;;;5013297;28;20140;-43
2023/07/07 10:22:42;;;;;;;5.50;3.00;;;27.40;91.00;;;;;;5024107;28;20134;-42
2023/07/07 10:25:13;;;;;;;7.28;3.38;;;27.50;90.00;;;;;;5012944;28;20059;-44
2023/07/07 10:27:47;;;;;;;5.05;3.30;;;27.60;89.20;;;;;;5023505;28;20061;-42
2023/07/07 10:30:13;;;;;;;4.40;3.25;;;27.50;90.10;;;;;;5116375;27;20431;-44
2023/07/07 10:32:40;;;;;;;4.72;3.38;;;27.60;89.00;;;;;;5117550;27;20043;-45
2023/07/07 10:35:07;;;;;;;4.88;3.08;;;27.70;90.00;;;;;;5107241;27;20050;-42
2023/07/07 10:37:36;;;;;;;5.70;3.00;;;27.70;90.90;;;;;;5114087;27;20071;-43
2023/07/07 10:40:03;;;;;;;5.00;3.85;;;27.70;90.90;;;;;;5137268;27;20088;-42
2023/07/07 10:42:30;;;;;;;6.15;3.58;;;27.70;87.80;;;;;;5138557;27;20631;-43
2023/07/07 10:44:58;;;;;;;5.43;3.72;;;27.80;86.50;;;;;;5103423;27;20143;-43
2023/07/07 10:47:32;;;;;;;4.85;3.25;;;27.60;85.10;;;;;;5098828;27;20585;-46
2023/07/07 10:49:59;;;;;;;5.78;3.20;;;27.50;86.30;;;;;;5098970;27;20062;-40
2023/07/07 10:52:43;;;;;;;5.32;3.10;;;27.50;86.40;;;;;;5098406;27;20527;-41
2023/07/07 10:55:32;;;;;;;6.00;3.55;;;27.50;84.80;;;;;;5117327;27;20090;-41
2023/07/07 10:58:24;;;;;;;4.85;3.17;;;27.60;86.90;;;;;;5117447;27;20201;-42
2023/07/07 11:01:18;;;;;;;7.30;3.63;;;27.60;84.80;;;;;;5116676;27;20045;-41
2023/07/07 11:03:58;;;;;;;6.18;2.88;;;27.60;89.30;;;;;;5117179;27;20087;-41
2023/07/07 11:06:31;;;;;;;4.53;3.20;;;27.70;86.90;;;;;;5116936;27;20077;-42
2023/07/07 11:09:22;;;;;;;3.38;2.92;;;27.80;90.00;;;;;;5116431;27;20099;-42
2023/07/07 11:12:01;;;;;;;4.97;3.70;;;27.80;90.00;;;;;;5116317;27;20047;-42
2023/07/07 11:14:30;;;;;;;5.88;3.15;;;27.90;90.60;;;;;;5116455;27;20062;-42
2023/07/07 11:17:04;;;;;;;4.00;3.03;;;27.80;87.10;;;;;;5098577;27;20039;-43
2023/07/07 11:19:36;;;;;;;5.68;3.42;;;27.80;85.90;;;;;;5117040;27;20138;-43
2023/07/07 11:22:14;;;;;;;6.20;3.67;;;27.70;86.00;;;;;;5116512;27;20469;-41
2023/07/07 11:24:54;;;;;;;6.93;3.63;;;27.70;85.80;;;;;;5115347;27;20568;-43
2023/07/07 11:27:20;;;;;;;4.90;3.40;;;27.60;85.90;;;;;;5117008;27;20046;-41
2023/07/07 11:30:12;;;;;;;5.85;3.25;;;27.50;87.70;;;;;;5115402;27;20069;-41
2023/07/07 11:32:56;;;;;;;7.22;3.75;;;27.50;89.10;;;;;;5116310;27;20084;-43
2023/07/07 11:35:43;;;;;;;5.28;3.17;;;27.70;87.70;;;;;;5106244;27;20099;-44
2023/07/07 11:38:33;;;;;;;5.00;3.83;;;27.80;88.40;;;;;;5116745;27;20046;-41
2023/07/07 11:41:26;;;;;;;5.28;3.00;;;27.90;85.00;;;;;;5134054;27;20046;-42
2023/07/07 11:43:54;;;;;;;5.90;3.15;;;28.00;90.30;;;;;;5113468;27;20050;-42
2023/07/07 11:46:35;;;;;;;5.95;3.75;;;28.00;87.20;;;;;;5113705;27;20058;-41
2023/07/07 11:49:20;;;;;;;4.97;2.90;;;28.00;88.00;;;;;;5115506;27;20045;-42
2023/07/07 11:52:27;;;;;;;5.22;4.30;;;28.10;86.20;;;;;;5096808;27;20530;-42
2023/07/07 11:55:06;;;;;;;3.80;2.92;;;27.90;84.70;;;;;;5096578;27;20438;-43
2023/07/07 11:57:41;;;;;;;6.30;3.10;;;27.90;88.10;;;;;;5114894;27;20494;-43
2023/07/07 12:00:25;;;;;;;4.00;3.08;;;27.80;85.90;;;;;;5113112;27;20126;-44
2023/07/07 12:02:56;;;;;;;5.47;3.30;;;27.90;88.00;;;;;;5104717;27;20368;-41
2023/07/07 12:05:32;;;;;;;5.30;3.60;;;27.90;90.00;;;;;;5115658;27;20039;-42
2023/07/07 12:08:44;;;;;;;5.00;3.70;;;28.00;88.20;;;;;;5115973;27;20127;-43
2023/07/07 12:11:14;;;;;;;5.30;3.55;;;27.90;84.50;;;;;;5030216;28;20407;-41
2023/07/07 12:13:59;;;;;;;4.40;3.67;;;27.80;84.10;;;;;;5031259;28;20067;-41
2023/07/07 12:16:27;;;;;;;4.97;3.95;;;27.80;84.70;;;;;;5014514;28;20119;-42
2023/07/07 12:19:15;;;;;;;6.00;3.80;;;27.60;85.30;;;;;;5014039;28;20065;-42
2023/07/07 12:21:43;;;;;;;4.60;3.22;;;27.60;86.90;;;;;;5030765;28;20470;-42
2023/07/07 12:24:38;;;;;;;6.82;3.75;;;27.70;87.40;;;;;;5051211;28;20128;-43
2023/07/07 12:27:32;;;;;;;10.90;4.18;;;27.80;86.20;;;;;;5034368;28;20053;-42
2023/07/07 12:29:59;;;;;;;4.63;3.65;;;27.70;86.10;;;;;;5023505;28;20058;-42
2023/07/07 12:32:24;;;;;;;6.07;3.60;;;27.70;85.50;;;;;;5051634;28;20059;-42
2023/07/07 12:35:06;;;;;;;5.25;3.63;;;27.70;86.10;;;;;;5017648;28;20053;-42
2023/07/07 12:37:34;;;;;;;4.50;3.27;;;27.70;89.60;;;;;;5031380;28;20164;-42
2023/07/07 12:40:12;;;;;;;4.38;3.97;;;27.70;86.30;;;;;;5030494;28;20069;-41
2023/07/07 12:42:41;;;;;;;4.10;3.65;;;27.70;80.50;;;;;;5031024;28;20049;-41
2023/07/07 12:45:16;;;;;;;6.10;4.00;;;27.60;80.40;;;;;;5030931;28;20076;-42
2023/07/07 12:47:45;;;;;;;7.22;3.70;;;27.50;83.20;;;;;;5090662;28;20546;-41
2023/07/07 12:50:42;;;;;;;7.35;3.80;;;27.50;89.00;;;;;;5115140;28;20043;-42
2023/07/07 12:53:21;;;;;;;4.60;3.45;;;27.50;84.70;;;;;;5031591;28;20068;-40
2023/07/07 12:56:04;;;;;;;5.15;3.80;;;27.60;89.50;;;;;;5030323;28;20075;-41
2023/07/07 12:58:38;;;;;;;4.30;3.58;;;27.60;89.90;;;;;;5031245;28;20049;-43
2023/07/07 13:01:10;;;;;;;4.65;3.53;;;27.60;90.10;;;;;;5030421;28;20091;-41